createdAt,value
2019-04-07T00:00:12.420Z,98720.66
2019-04-07T00:01:48.278Z,98720.07
2019-04-07T00:03:23.042Z,98725.89
2019-04-07T00:05:09.322Z,98726.64
2019-04-07T00:06:33.882Z,98724.16
2019-04-07T00:08:08.118Z,98714.38
2019-04-07T00:09:42.483Z,98725.81
2019-04-07T00:11:17.453Z,98724.53
2019-04-07T00:12:52.190Z,98718.33
2019-04-07T00:14:26.412Z,98715.80
2019-04-07T00:16:01.358Z,98715.95
2019-04-07T00:17:36.425Z,98717.80
2019-04-07T00:19:11.138Z,98713.31
2019-04-07T00:20:45.588Z,98715.20
2019-04-07T00:22:19.970Z,98715.19
2019-04-07T00:23:54.467Z,98705.22
2019-04-07T00:25:28.853Z,98714.38
2019-04-07T00:27:03.552Z,98709.12
2019-04-07T00:28:39.485Z,98714.84
2019-04-07T00:30:14.834Z,98713.58
2019-04-07T00:31:50.053Z,98706.88
2019-04-07T00:33:25.530Z,98707.11
2019-04-07T00:35:00.072Z,98713.63
2019-04-07T00:36:34.265Z,98711.52
2019-04-07T00:38:09.538Z,98717.25
2019-04-07T00:39:43.951Z,98710.16
2019-04-07T00:41:18.359Z,98711.08
2019-04-07T00:42:53.347Z,98711.29
2019-04-07T00:44:27.998Z,98710.98
2019-04-07T00:46:02.412Z,98711.67
2019-04-07T00:47:37.277Z,98704.92
2019-04-07T00:49:11.886Z,98701.56
2019-04-07T00:50:46.934Z,98704.11
2019-04-07T00:52:22.983Z,98703.17
2019-04-07T00:53:58.005Z,98699.14
2019-04-07T00:55:32.237Z,98697.96
2019-04-07T00:57:06.870Z,98705.16
2019-04-07T00:58:41.101Z,98700.33
2019-04-07T01:00:17.253Z,98702.61
2019-04-07T01:01:51.650Z,98696.62
2019-04-07T01:03:26.913Z,98696.22
2019-04-07T01:05:01.803Z,98702.20
2019-04-07T01:06:36.118Z,98691.08
2019-04-07T01:08:10.778Z,98696.00
2019-04-07T01:09:45.486Z,98693.55
2019-04-07T01:11:20.063Z,98698.22
2019-04-07T01:12:54.466Z,98693.02
2019-04-07T01:14:29.019Z,98688.31
2019-04-07T01:16:03.897Z,98690.16
2019-04-07T01:17:38.238Z,98696.00
2019-04-07T01:19:12.489Z,98692.41
2019-04-07T01:20:46.894Z,98687.05
2019-04-07T01:22:21.870Z,98691.86
2019-04-07T01:23:56.910Z,98687.11
2019-04-07T01:25:31.459Z,98691.48
2019-04-07T01:27:05.746Z,98686.72
2019-04-07T01:28:40.708Z,98692.74
2019-04-07T01:30:16.077Z,98688.81
2019-04-07T01:31:50.621Z,98690.98
2019-04-07T01:33:25.578Z,98687.81
2019-04-07T01:35:01.304Z,98690.65
2019-04-07T01:36:35.843Z,98684.75
2019-04-07T01:38:10.373Z,98694.03
2019-04-07T01:39:45.011Z,98685.09
2019-04-07T01:41:34.037Z,98685.09
2019-04-07T01:43:10.534Z,98692.41
2019-04-07T01:44:47.228Z,98688.95
2019-04-07T01:46:26.159Z,98689.85
2019-04-07T01:48:08.093Z,98686.98
2019-04-07T01:49:44.504Z,98690.77
2019-04-07T01:51:21.140Z,98680.09
2019-04-07T01:52:57.089Z,98683.82
2019-04-07T01:54:36.291Z,98686.87
2019-04-07T01:56:27.388Z,98689.19
2019-04-07T01:58:16.159Z,98690.23
2019-04-07T01:59:58.608Z,98686.86
2019-04-07T02:01:52.698Z,98689.41
2019-04-07T02:03:44.609Z,98693.42
2019-04-07T02:05:33.374Z,98695.77
2019-04-07T02:07:27.337Z,98692.57
2019-04-07T02:09:03.310Z,98699.20
2019-04-07T02:10:55.037Z,98701.05
2019-04-07T02:12:31.365Z,98696.11
2019-04-07T02:14:20.186Z,98697.89
2019-04-07T02:16:02.839Z,98698.61
2019-04-07T02:17:45.560Z,98691.77
2019-04-07T02:19:30.513Z,98691.92
2019-04-07T02:21:13.025Z,98691.98
2019-04-07T02:22:49.776Z,98686.84
2019-04-07T02:24:28.783Z,98687.50
2019-04-07T02:26:20.269Z,98688.59
2019-04-07T02:28:02.333Z,98681.92
2019-04-07T02:29:41.098Z,98681.66
2019-04-07T02:31:19.684Z,98685.35
2019-04-07T02:32:55.972Z,98685.77
2019-04-07T02:34:44.114Z,98688.97
2019-04-07T02:36:27.452Z,98689.39
2019-04-07T02:38:02.052Z,98684.96
2019-04-07T02:39:38.690Z,98687.94
2019-04-07T02:41:15.796Z,98690.08
2019-04-07T02:43:08.928Z,98683.18
2019-04-07T02:45:01.402Z,98687.77
2019-04-07T02:46:46.335Z,98686.69
2019-04-07T02:48:35.173Z,98689.73
2019-04-07T02:50:17.695Z,98689.18
2019-04-07T02:52:06.123Z,98690.55
2019-04-07T02:53:51.116Z,98689.18
2019-04-07T02:55:36.367Z,98689.59
2019-04-07T02:57:18.975Z,98690.91
2019-04-07T02:59:10.411Z,98692.47
2019-04-07T03:00:52.323Z,98687.48
2019-04-07T03:02:34.635Z,98688.64
2019-04-07T03:04:26.305Z,98694.79
2019-04-07T03:06:08.848Z,98690.23
2019-04-07T03:07:50.763Z,98688.13
2019-04-07T03:09:30.002Z,98695.78
2019-04-07T03:11:09.642Z,98697.30
2019-04-07T03:13:02.799Z,98694.09
2019-04-07T03:14:42.087Z,98694.86
2019-04-07T03:16:17.981Z,98694.80
2019-04-07T03:18:08.969Z,98693.14
2019-04-07T03:19:48.626Z,98691.45
2019-04-07T03:21:24.758Z,98694.86
2019-04-07T03:23:07.279Z,98695.02
2019-04-07T03:24:46.334Z,98697.42
2019-04-07T03:26:25.795Z,98698.44
2019-04-07T03:28:01.923Z,98700.95
2019-04-07T03:29:38.409Z,98702.48
2019-04-07T03:31:32.172Z,98695.34
2019-04-07T03:33:16.492Z,98705.43
2019-04-07T03:34:55.422Z,98706.91
2019-04-07T03:37:12.779Z,98702.86
2019-04-07T03:38:25.776Z,98708.27
2019-04-07T03:40:02.590Z,98705.47
2019-04-07T03:41:39.921Z,98708.61
2019-04-07T03:43:32.898Z,98711.42
2019-04-07T03:45:22.161Z,98718.78
2019-04-07T03:47:01.468Z,98723.48
2019-04-07T03:48:46.539Z,98723.37
2019-04-07T03:50:23.049Z,98727.61
2019-04-07T03:52:02.012Z,98728.20
2019-04-07T03:53:55.912Z,98727.77
2019-04-07T03:55:49.287Z,98732.36
2019-04-07T03:57:28.350Z,98733.70
2019-04-07T03:59:10.938Z,98738.13
2019-04-07T04:01:15.707Z,98740.36
2019-04-07T04:02:54.943Z,98735.50
2019-04-07T04:04:34.249Z,98738.69
2019-04-07T04:06:13.892Z,98738.73
2019-04-07T04:07:50.126Z,98746.19
2019-04-07T04:09:42.814Z,98745.45
2019-04-07T04:11:19.102Z,98749.48
2019-04-07T04:13:03.823Z,98751.53
2019-04-07T04:14:55.084Z,98750.58
2019-04-07T04:16:29.793Z,98745.05
2019-04-07T04:18:04.020Z,98748.11
2019-04-07T04:19:38.415Z,98753.75
2019-04-07T04:21:12.858Z,98753.01
2019-04-07T04:22:47.158Z,98749.23
2019-04-07T04:24:21.556Z,98755.06
2019-04-07T04:25:56.282Z,98750.37
2019-04-07T04:27:31.260Z,98751.65
2019-04-07T04:29:06.030Z,98750.09
2019-04-07T04:30:40.466Z,98753.31
2019-04-07T04:32:15.284Z,98757.92
2019-04-07T04:33:50.106Z,98765.00
2019-04-07T04:35:24.667Z,98756.66
2019-04-07T04:36:59.943Z,98751.85
2019-04-07T04:38:34.450Z,98755.34
2019-04-07T04:40:09.370Z,98757.63
2019-04-07T04:41:44.696Z,98757.95
2019-04-07T04:43:19.778Z,98758.42
2019-04-07T04:44:54.370Z,98756.13
2019-04-07T04:46:30.392Z,98754.48
2019-04-07T04:48:04.915Z,98759.84
2019-04-07T04:49:39.144Z,98754.77
2019-04-07T04:51:13.527Z,98757.66
2019-04-07T04:52:48.745Z,98758.99
2019-04-07T04:54:23.094Z,98755.72
2019-04-07T04:55:57.663Z,98760.48
2019-04-07T04:57:32.607Z,98756.22
2019-04-07T04:59:07.459Z,98758.45
2019-04-07T05:00:42.845Z,98761.67
2019-04-07T05:02:17.478Z,98764.48
2019-04-07T05:03:52.531Z,98761.92
2019-04-07T05:05:28.007Z,98767.02
2019-04-07T05:07:03.295Z,98763.26
2019-04-07T05:08:39.190Z,98761.79
2019-04-07T05:10:13.594Z,98762.34
2019-04-07T05:11:48.535Z,98765.77
2019-04-07T05:13:22.848Z,98764.63
2019-04-07T05:14:57.193Z,98768.00
2019-04-07T05:16:32.104Z,98767.48
2019-04-07T05:18:07.301Z,98769.38
2019-04-07T05:19:42.880Z,98764.63
2019-04-07T05:21:17.432Z,98767.88
2019-04-07T05:22:52.266Z,98773.66
2019-04-07T05:24:27.096Z,98773.56
2019-04-07T05:26:01.460Z,98769.09
2019-04-07T05:27:35.740Z,98776.39
2019-04-07T05:29:10.898Z,98773.78
2019-04-07T05:30:46.853Z,98772.64
2019-04-07T05:32:21.262Z,98775.15
2019-04-07T05:33:55.633Z,98775.46
2019-04-07T05:35:29.959Z,98776.44
2019-04-07T05:37:04.531Z,98776.06
2019-04-07T05:38:39.458Z,98771.95
2019-04-07T05:40:14.075Z,98772.14
2019-04-07T05:41:48.285Z,98776.53
2019-04-07T05:43:22.760Z,98773.66
2019-04-07T05:44:57.099Z,98775.51
2019-04-07T05:46:31.406Z,98772.42
2019-04-07T05:48:05.620Z,98775.84
2019-04-07T05:49:40.364Z,98779.30
2019-04-07T05:51:14.635Z,98775.09
2019-04-07T05:52:48.914Z,98776.18
2019-04-07T05:54:24.009Z,98774.49
2019-04-07T05:55:58.780Z,98773.08
2019-04-07T05:57:34.864Z,98778.08
2019-04-07T05:59:11.648Z,98774.25
2019-04-07T06:00:46.963Z,98774.50
2019-04-07T06:02:21.133Z,98775.45
2019-04-07T06:03:55.447Z,98779.75
2019-04-07T06:05:30.241Z,98780.61
2019-04-07T06:07:04.616Z,98784.86
2019-04-07T06:08:40.373Z,98781.05
2019-04-07T06:10:15.505Z,98779.89
2019-04-07T06:11:49.866Z,98777.94
2019-04-07T06:13:24.690Z,98784.03
2019-04-07T06:14:59.620Z,98786.77
2019-04-07T06:16:34.393Z,98787.50
2019-04-07T06:18:09.383Z,98783.08
2019-04-07T06:19:44.396Z,98782.54
2019-04-07T06:21:18.895Z,98785.32
2019-04-07T06:22:54.452Z,98781.73
2019-04-07T06:24:32.162Z,98787.47
2019-04-07T06:26:09.300Z,98784.45
2019-04-07T06:27:44.933Z,98789.20
2019-04-07T06:29:18.301Z,98784.20
2019-04-07T06:30:53.060Z,98784.16
2019-04-07T06:32:27.618Z,98787.27
2019-04-07T06:34:02.117Z,98787.55
2019-04-07T06:35:36.523Z,98786.27
2019-04-07T06:37:11.141Z,98787.28
2019-04-07T06:38:51.137Z,98781.22
2019-04-07T06:40:22.301Z,98785.66
2019-04-07T06:42:00.383Z,98785.53
2019-04-07T06:43:35.166Z,98779.88
2019-04-07T06:45:11.855Z,98783.83
2019-04-07T06:46:58.566Z,98781.61
2019-04-07T06:48:30.626Z,98789.70
2019-04-07T06:50:14.139Z,98787.16
2019-04-07T06:52:00.793Z,98785.60
2019-04-07T06:53:35.270Z,98787.92
2019-04-07T06:55:28.003Z,98784.29
2019-04-07T06:57:20.068Z,98783.27
2019-04-07T06:59:11.854Z,98785.07
2019-04-07T07:01:03.302Z,98784.69
2019-04-07T07:02:48.945Z,98782.06
2019-04-07T07:04:27.856Z,98778.42
2019-04-07T07:06:17.350Z,98778.05
2019-04-07T07:07:54.211Z,98779.69
2019-04-07T07:09:31.779Z,98782.95
2019-04-07T07:11:09.787Z,98781.20
2019-04-07T07:12:52.516Z,98783.78
2019-04-07T07:14:46.973Z,98783.53
2019-04-07T07:16:36.143Z,98783.50
2019-04-07T07:18:22.121Z,98788.97
2019-04-07T07:20:01.743Z,98786.02
2019-04-07T07:21:42.621Z,98788.13
2019-04-07T07:23:18.687Z,98789.46
2019-04-07T07:24:56.423Z,98793.28
2019-04-07T07:26:32.984Z,98796.44
2019-04-07T07:28:07.334Z,98792.53
2019-04-07T07:29:45.371Z,98792.60
2019-04-07T07:31:18.167Z,98794.03
2019-04-07T07:32:52.869Z,98791.66
2019-04-07T07:34:27.294Z,98797.47
2019-04-07T07:36:02.345Z,98793.14
2019-04-07T07:37:36.662Z,98795.67
2019-04-07T07:39:12.561Z,98789.28
2019-04-07T07:40:47.772Z,98788.80
2019-04-07T07:42:24.226Z,98786.92
2019-04-07T07:44:02.666Z,98792.05
2019-04-07T07:45:34.962Z,98787.52
2019-04-07T07:47:09.238Z,98790.76
2019-04-07T07:48:43.457Z,98784.98
2019-04-07T07:50:17.881Z,98789.58
2019-04-07T07:51:52.756Z,98791.53
2019-04-07T07:53:28.619Z,98787.39
2019-04-07T07:55:03.768Z,98789.03
2019-04-07T07:56:41.542Z,98782.80
2019-04-07T07:58:14.314Z,98789.02
2019-04-07T07:59:48.662Z,98787.80
2019-04-07T08:01:23.530Z,98785.61
2019-04-07T08:02:58.244Z,98786.86
2019-04-07T08:04:33.382Z,98792.11
2019-04-07T08:06:08.415Z,98788.91
2019-04-07T08:07:46.807Z,98782.25
2019-04-07T08:09:23.109Z,98784.05
2019-04-07T08:10:58.540Z,98782.58
2019-04-07T08:12:34.284Z,98785.76
2019-04-07T08:14:07.783Z,98785.59
2019-04-07T08:15:43.719Z,98780.81
2019-04-07T08:17:19.334Z,98788.04
2019-04-07T08:18:53.709Z,98785.24
2019-04-07T08:20:28.590Z,98783.87
2019-04-07T08:22:03.106Z,98776.06
2019-04-07T08:23:39.011Z,98783.33
2019-04-07T08:25:14.137Z,98776.19
2019-04-07T08:26:48.863Z,98785.88
2019-04-07T08:28:23.324Z,98777.75
2019-04-07T08:29:58.285Z,98779.25
2019-04-07T08:31:32.774Z,98778.22
2019-04-07T08:33:07.318Z,98778.18
2019-04-07T08:34:41.648Z,98781.66
2019-04-07T08:36:16.327Z,98778.39
2019-04-07T08:37:50.651Z,98776.60
2019-04-07T08:39:27.037Z,98778.91
2019-04-07T08:41:00.942Z,98780.22
2019-04-07T08:42:35.780Z,98773.47
2019-04-07T08:44:12.567Z,98777.19
2019-04-07T08:45:47.059Z,98776.83
2019-04-07T08:47:23.134Z,98782.27
2019-04-07T08:49:00.192Z,98783.20
2019-04-07T08:50:35.021Z,98777.97
2019-04-07T08:52:12.055Z,98776.67
2019-04-07T08:53:46.082Z,98779.30
2019-04-07T08:55:21.846Z,98774.92
2019-04-07T08:56:58.219Z,98776.14
2019-04-07T08:58:36.868Z,98772.66
2019-04-07T09:00:16.381Z,98774.27
2019-04-07T09:01:52.266Z,98773.78
2019-04-07T09:03:24.277Z,98771.34
2019-04-07T09:05:00.263Z,98767.74
2019-04-07T09:06:34.697Z,98772.28
2019-04-07T09:08:09.276Z,98769.48
2019-04-07T09:09:47.418Z,98763.48
2019-04-07T09:11:23.277Z,98774.92
2019-04-07T09:13:00.644Z,98770.45
2019-04-07T09:14:33.258Z,98772.45
2019-04-07T09:16:17.369Z,98768.09
2019-04-07T09:17:53.190Z,98765.83
2019-04-07T09:19:35.018Z,98765.19
2019-04-07T09:21:18.643Z,98764.87
2019-04-07T09:22:56.690Z,98769.29
2019-04-07T09:24:43.980Z,98770.25
2019-04-07T09:26:33.295Z,98764.72
2019-04-07T09:28:15.314Z,98764.14
2019-04-07T09:30:01.097Z,98762.08
2019-04-07T09:31:37.489Z,98762.31
2019-04-07T09:33:16.722Z,98767.40
2019-04-07T09:34:58.871Z,98766.92
2019-04-07T09:36:47.707Z,98762.94
2019-04-07T09:38:38.619Z,98762.62
2019-04-07T09:40:27.814Z,98765.59
2019-04-07T09:42:10.120Z,98766.00
2019-04-07T09:44:03.124Z,98764.73
2019-04-07T09:45:40.012Z,98760.50
2019-04-07T09:47:19.623Z,98757.80
2019-04-07T09:49:13.527Z,98757.75
2019-04-07T09:50:55.021Z,98755.34
2019-04-07T09:52:48.819Z,98756.38
2019-04-07T09:54:32.337Z,98753.05
2019-04-07T09:56:19.356Z,98753.13
2019-04-07T09:57:58.193Z,98751.55
2019-04-07T09:59:40.155Z,98753.38
2019-04-07T10:01:27.763Z,98755.38
2019-04-07T10:03:15.168Z,98757.14
2019-04-07T10:04:51.040Z,98753.88
2019-04-07T10:06:39.342Z,98755.47
2019-04-07T10:08:19.182Z,98752.97
2019-04-07T10:10:08.569Z,98748.98
2019-04-07T10:11:38.589Z,98751.05
2019-04-07T10:13:24.092Z,98751.05
2019-04-07T10:15:16.645Z,98757.81
2019-04-07T10:16:56.278Z,98746.49
2019-04-07T10:18:36.093Z,98742.30
2019-04-07T10:20:25.962Z,98747.34
2019-04-07T10:22:18.446Z,98749.30
2019-04-07T10:24:06.394Z,98745.08
2019-04-07T10:25:58.365Z,98742.27
2019-04-07T10:27:34.551Z,98741.36
2019-04-07T10:29:11.025Z,98737.47
2019-04-07T10:30:47.346Z,98739.45
2019-04-07T10:32:35.516Z,98738.53
2019-04-07T10:34:14.916Z,98744.58
2019-04-07T10:35:56.999Z,98741.80
2019-04-07T10:37:36.205Z,98739.76
2019-04-07T10:39:14.261Z,98736.67
2019-04-07T10:40:50.390Z,98737.66
2019-04-07T10:42:29.364Z,98724.84
2019-04-07T10:44:21.446Z,98727.66
2019-04-07T10:46:17.934Z,98722.69
2019-04-07T10:48:02.860Z,98723.67
2019-04-07T10:50:02.417Z,98714.55
2019-04-07T10:51:32.979Z,98717.74
2019-04-07T10:53:21.630Z,98719.92
2019-04-07T10:55:03.883Z,98716.57
2019-04-07T10:56:39.771Z,98727.48
2019-04-07T10:58:18.519Z,98720.03
2019-04-07T10:59:57.875Z,98720.03
2019-04-07T11:01:50.181Z,98718.20
2019-04-07T11:03:26.021Z,98714.00
2019-04-07T11:05:01.998Z,98718.16
2019-04-07T11:06:53.643Z,98717.16
2019-04-07T11:08:38.632Z,98717.17
2019-04-07T11:10:14.732Z,98717.87
2019-04-07T11:12:06.298Z,98714.37
2019-04-07T11:13:45.701Z,98711.16
2019-04-07T11:15:22.363Z,98713.23
2019-04-07T11:17:08.169Z,98713.86
2019-04-07T11:19:00.414Z,98711.58
2019-04-07T11:20:52.622Z,98703.97
2019-04-07T11:22:45.321Z,98706.30
2019-04-07T11:24:21.824Z,98705.25
2019-04-07T11:26:13.490Z,98707.06
2019-04-07T11:27:50.382Z,98706.03
2019-04-07T11:29:26.590Z,98701.48
2019-04-07T11:31:02.469Z,98705.59
2019-04-07T11:32:41.485Z,98704.72
2019-04-07T11:34:21.657Z,98700.95
2019-04-07T11:36:12.693Z,98704.53
2019-04-07T11:38:05.683Z,98700.70
2019-04-07T11:39:44.767Z,98698.44
2019-04-07T11:41:29.567Z,98694.38
2019-04-07T11:43:14.210Z,98701.78
2019-04-07T11:45:06.745Z,98693.80
2019-04-07T11:46:57.652Z,98695.77
2019-04-07T11:48:50.403Z,98690.88
2019-04-07T11:50:29.931Z,98683.85
2019-04-07T11:52:06.119Z,98683.05
2019-04-07T11:53:45.947Z,98675.61
2019-04-07T11:55:26.124Z,98677.47
2019-04-07T11:57:12.063Z,98678.47
2019-04-07T11:58:55.240Z,98669.30
2019-04-07T12:00:46.340Z,98664.23
2019-04-07T12:02:28.979Z,98664.19
2019-04-07T12:04:11.219Z,98656.78
2019-04-07T12:05:48.428Z,98658.82
2019-04-07T12:07:27.057Z,98654.41
2019-04-07T12:09:13.094Z,98645.88
2019-04-07T12:11:06.246Z,98651.89
2019-04-07T12:12:48.294Z,98655.73
2019-04-07T12:14:33.977Z,98649.09
2019-04-07T12:16:28.632Z,98651.67
2019-04-07T12:18:18.907Z,98642.94
2019-04-07T12:20:11.682Z,98643.63
2019-04-07T12:21:48.116Z,98641.92
2019-04-07T12:23:42.294Z,98637.95
2019-04-07T12:25:29.342Z,98630.94
2019-04-07T12:27:21.663Z,98633.23
2019-04-07T12:29:06.949Z,98629.91
2019-04-07T12:30:54.963Z,98629.23
2019-04-07T12:32:36.369Z,98629.47
2019-04-07T12:34:22.208Z,98621.92
2019-04-07T12:36:11.769Z,98624.31
2019-04-07T12:37:54.185Z,98620.94
2019-04-07T12:39:40.663Z,98611.84
2019-04-07T12:41:32.785Z,98623.50
2019-04-07T12:43:12.090Z,98619.80
2019-04-07T12:44:49.524Z,98612.19
2019-04-07T12:46:44.229Z,98624.08
2019-04-07T12:48:36.721Z,98624.25
2019-04-07T12:50:29.451Z,98618.34
2019-04-07T12:52:26.136Z,98620.87
2019-04-07T12:56:02.342Z,98622.88
2019-04-07T12:57:39.784Z,98624.97
2019-04-07T12:59:16.888Z,98614.20
2019-04-07T13:01:06.845Z,98619.92
2019-04-07T13:02:54.383Z,98621.23
2019-04-07T13:04:30.610Z,98610.04
2019-04-07T13:06:09.505Z,98605.23
2019-04-07T13:07:59.220Z,98606.13
2019-04-07T13:09:43.818Z,98607.09
2019-04-07T13:11:39.450Z,98601.95
2019-04-07T13:13:33.745Z,98606.52
2019-04-07T13:15:19.427Z,98603.72
2019-04-07T13:17:00.123Z,98606.59
2019-04-07T13:18:42.461Z,98606.45
2019-04-07T13:20:20.922Z,98604.53
2019-04-07T13:22:13.157Z,98601.98
2019-04-07T13:23:55.989Z,98601.67
2019-04-07T13:25:44.192Z,98604.55
2019-04-07T13:27:20.211Z,98600.66
2019-04-07T13:28:57.533Z,98606.11
2019-04-07T13:30:50.153Z,98603.27
2019-04-07T13:32:41.549Z,98605.47
2019-04-07T13:34:12.868Z,98602.70
2019-04-07T13:36:07.238Z,98601.91
2019-04-07T13:37:43.716Z,98604.09
2019-04-07T13:39:19.942Z,98602.62
2019-04-07T13:41:12.250Z,98602.51
2019-04-07T13:42:52.091Z,98606.60
2019-04-07T13:44:28.385Z,98605.42
2019-04-07T13:46:04.515Z,98611.36
2019-04-07T13:47:56.877Z,98608.11
2019-04-07T13:49:39.600Z,98606.19
2019-04-07T13:51:33.082Z,98607.64
2019-04-07T13:53:09.904Z,98607.29
2019-04-07T13:54:55.832Z,98609.05
2019-04-07T13:56:34.467Z,98603.41
2019-04-07T13:58:19.681Z,98606.05
2019-04-07T14:00:16.012Z,98604.13
2019-04-07T14:01:55.369Z,98601.23
2019-04-07T14:03:35.600Z,98603.27
2019-04-07T14:05:27.296Z,98607.00
2019-04-07T14:07:04.095Z,98604.34
2019-04-07T14:08:57.234Z,98599.66
2019-04-07T14:10:41.730Z,98600.95
2019-04-07T14:12:17.701Z,98600.72
2019-04-07T14:14:09.758Z,98602.88
2019-04-07T14:15:54.773Z,98609.08
2019-04-07T14:17:37.337Z,98609.95
2019-04-07T14:19:13.470Z,98604.06
2019-04-07T14:21:01.867Z,98603.09
2019-04-07T14:22:46.595Z,98603.55
2019-04-07T14:24:31.675Z,98602.16
2019-04-07T14:26:13.370Z,98605.91
2019-04-07T14:27:55.822Z,98607.70
2019-04-07T14:29:32.707Z,98604.65
2019-04-07T14:31:09.440Z,98604.80
2019-04-07T14:32:52.351Z,98606.91
2019-04-07T14:34:37.278Z,98603.23
2019-04-07T14:36:13.772Z,98604.38
2019-04-07T14:37:52.748Z,98604.92
2019-04-07T14:39:38.240Z,98611.94
2019-04-07T14:41:33.280Z,98601.39
2019-04-07T14:43:25.824Z,98608.23
2019-04-07T14:45:18.802Z,98607.33
2019-04-07T14:47:07.608Z,98608.73
2019-04-07T14:48:46.713Z,98602.08
2019-04-07T14:50:26.439Z,98603.50
2019-04-07T14:52:02.588Z,98601.90
2019-04-07T14:53:42.074Z,98605.55
2019-04-07T14:55:18.442Z,98604.73
2019-04-07T14:57:01.018Z,98596.69
2019-04-07T14:58:52.565Z,98596.48
2019-04-07T15:00:43.996Z,98604.15
2019-04-07T15:02:19.102Z,98601.70
2019-04-07T15:03:54.517Z,98601.35
2019-04-07T15:05:31.005Z,98601.13
2019-04-07T15:07:18.829Z,98601.77
2019-04-07T15:08:55.267Z,98599.19
2019-04-07T15:10:50.102Z,98601.44
2019-04-07T15:12:32.309Z,98598.89
2019-04-07T15:14:06.915Z,98600.41
2019-04-07T15:15:41.794Z,98600.91
2019-04-07T15:17:16.632Z,98599.22
2019-04-07T15:18:51.243Z,98598.47
2019-04-07T15:20:25.698Z,98605.59
2019-04-07T15:22:02.356Z,98601.66
2019-04-07T15:23:36.776Z,98605.02
2019-04-07T15:25:11.931Z,98599.04
2019-04-07T15:26:48.937Z,98600.42
2019-04-07T15:28:22.566Z,98597.41
2019-04-07T15:29:57.809Z,98602.33
2019-04-07T15:31:33.095Z,98599.95
2019-04-07T15:33:07.985Z,98605.67
2019-04-07T15:34:43.230Z,98601.89
2019-04-07T15:36:19.567Z,98605.39
2019-04-07T15:37:54.933Z,98603.52
2019-04-07T15:39:30.326Z,98604.18
2019-04-07T15:41:09.885Z,98594.45
2019-04-07T15:42:46.007Z,98603.80
2019-04-07T15:44:17.457Z,98601.92
2019-04-07T15:45:52.301Z,98599.11
2019-04-07T15:47:27.624Z,98596.67
2019-04-07T15:49:02.693Z,98594.45
2019-04-07T15:50:38.057Z,98595.51
2019-04-07T15:52:13.144Z,98601.30
2019-04-07T15:53:51.339Z,98595.72
2019-04-07T15:55:26.381Z,98588.14
2019-04-07T15:57:01.064Z,98588.34
2019-04-07T15:58:35.701Z,98599.50
2019-04-07T16:00:11.122Z,98593.19
2019-04-07T16:01:46.170Z,98597.67
2019-04-07T16:03:21.167Z,98596.56
2019-04-07T16:04:59.248Z,98593.39
2019-04-07T16:06:34.844Z,98591.09
2019-04-07T16:08:08.482Z,98593.32
2019-04-07T16:09:50.753Z,98593.19
2019-04-07T16:11:24.180Z,98598.53
2019-04-07T16:12:58.802Z,98598.76
2019-04-07T16:14:32.074Z,98596.89
2019-04-07T16:16:06.610Z,98598.98
2019-04-07T16:17:42.081Z,98596.89
2019-04-07T16:19:24.926Z,98602.45
2019-04-07T16:20:54.269Z,98597.80
2019-04-07T16:22:28.888Z,98599.75
2019-04-07T16:24:03.622Z,98599.05
2019-04-07T16:25:40.215Z,98596.48
2019-04-07T16:27:13.877Z,98594.97
2019-04-07T16:28:48.495Z,98594.23
2019-04-07T16:30:23.389Z,98595.28
2019-04-07T16:31:58.699Z,98597.63
2019-04-07T16:33:35.254Z,98594.68
2019-04-07T16:35:14.936Z,98591.55
2019-04-07T16:36:47.609Z,98588.53
2019-04-07T16:38:22.052Z,98582.93
2019-04-07T16:39:56.846Z,98582.86
2019-04-07T16:41:31.585Z,98588.22
2019-04-07T16:43:13.443Z,98590.75
2019-04-07T16:44:44.175Z,98590.66
2019-04-07T16:46:21.635Z,98591.44
2019-04-07T16:47:56.431Z,98589.27
2019-04-07T16:49:31.531Z,98590.13
2019-04-07T16:51:06.330Z,98586.95
2019-04-07T16:52:41.860Z,98588.58
2019-04-07T16:54:16.401Z,98584.73
2019-04-07T16:55:54.057Z,98586.66
2019-04-07T16:57:30.169Z,98587.62
2019-04-07T16:59:02.913Z,98585.34
2019-04-07T17:00:38.390Z,98578.91
2019-04-07T17:02:14.504Z,98589.30
2019-04-07T17:03:49.916Z,98589.00
2019-04-07T17:05:41.757Z,98585.44
2019-04-07T17:07:17.835Z,98589.27
2019-04-07T17:08:53.179Z,98592.28
2019-04-07T17:10:32.392Z,98592.96
2019-04-07T17:12:04.398Z,98588.36
2019-04-07T17:13:41.865Z,98595.25
2019-04-07T17:15:15.467Z,98590.25
2019-04-07T17:16:50.406Z,98585.83
2019-04-07T17:18:37.061Z,98595.27
2019-04-07T17:20:12.424Z,98599.33
2019-04-07T17:21:47.049Z,98598.25
2019-04-07T17:23:23.944Z,98595.54
2019-04-07T17:25:00.077Z,98594.05
2019-04-07T17:26:37.440Z,98592.89
2019-04-07T17:28:12.121Z,98589.14
2019-04-07T17:29:50.272Z,98595.73
2019-04-07T17:31:22.886Z,98598.83
2019-04-07T17:32:57.550Z,98599.03
2019-04-07T17:34:32.549Z,98604.72
2019-04-07T17:36:07.896Z,98606.52
2019-04-07T17:37:42.636Z,98609.93
2019-04-07T17:39:21.725Z,98605.55
2019-04-07T17:40:57.915Z,98605.59
2019-04-07T17:42:32.386Z,98612.78
2019-04-07T17:44:25.129Z,98610.85
2019-04-07T17:46:13.054Z,98617.89
2019-04-07T17:47:52.807Z,98616.39
2019-04-07T17:49:41.162Z,98616.70
2019-04-07T17:51:20.010Z,98618.43
2019-04-07T17:52:58.696Z,98613.08
2019-04-07T17:54:43.849Z,98613.63
2019-04-07T17:56:20.187Z,98618.39
2019-04-07T17:57:59.786Z,98621.17
2019-04-07T17:59:38.931Z,98622.86
2019-04-07T18:01:30.066Z,98620.87
2019-04-07T18:03:09.883Z,98623.30
2019-04-07T18:05:01.872Z,98627.75
2019-04-07T18:06:43.956Z,98627.34
2019-04-07T18:08:19.984Z,98623.96
2019-04-07T18:09:59.443Z,98624.85
2019-04-07T18:11:35.621Z,98623.75
2019-04-07T18:13:22.662Z,98623.69
2019-04-07T18:15:05.790Z,98622.73
2019-04-07T18:16:40.739Z,98622.66
2019-04-07T18:18:35.013Z,98621.44
2019-04-07T18:20:22.916Z,98621.03
2019-04-07T18:22:18.251Z,98623.73
2019-04-07T18:24:09.256Z,98616.91
2019-04-07T18:25:53.231Z,98616.68
2019-04-07T18:27:29.514Z,98616.50
2019-04-07T18:29:25.673Z,98612.31
2019-04-07T18:31:06.606Z,98615.91
2019-04-07T18:32:49.387Z,98609.73
2019-04-07T18:34:33.347Z,98603.42
2019-04-07T18:36:09.608Z,98607.93
2019-04-07T18:37:48.420Z,98608.59
2019-04-07T18:39:30.596Z,98620.80
2019-04-07T18:41:22.187Z,98617.59
2019-04-07T18:43:08.026Z,98616.44
2019-04-07T18:44:50.955Z,98617.72
2019-04-07T18:46:33.475Z,98621.67
2019-04-07T18:48:16.581Z,98622.92
2019-04-07T18:50:03.962Z,98619.86
2019-04-07T18:51:41.316Z,98625.69
2019-04-07T18:53:17.756Z,98626.17
2019-04-07T18:55:11.654Z,98619.58
2019-04-07T18:56:50.701Z,98621.72
2019-04-07T18:58:26.731Z,98623.09
2019-04-07T19:00:14.828Z,98614.64
2019-04-07T19:02:00.215Z,98616.16
2019-04-07T19:03:53.516Z,98621.44
2019-04-07T19:05:35.673Z,98612.05
2019-04-07T19:07:15.174Z,98616.61
2019-04-07T19:09:06.895Z,98614.47
2019-04-07T19:10:46.261Z,98611.62
2019-04-07T19:12:28.037Z,98611.68
2019-04-07T19:14:27.012Z,98611.16
2019-04-07T19:15:47.195Z,98599.97
2019-04-07T19:17:23.460Z,98604.00
2019-04-07T19:18:58.979Z,98603.17
2019-04-07T19:20:53.559Z,98600.23
2019-04-07T19:22:31.371Z,98603.86
2019-04-07T19:24:09.210Z,98596.74
2019-04-07T19:25:58.869Z,98604.49
2019-04-07T19:27:47.049Z,98602.34
2019-04-07T19:29:28.964Z,98604.66
2019-04-07T19:31:08.593Z,98601.42
2019-04-07T19:32:48.482Z,98602.62
2019-04-07T19:34:30.693Z,98597.90